sensor_id;sensor_type;location;lat;lon;timestamp;temperature;humidity
31309;DHT22;17936;52.446;10.840;2023-06-26T00:01:50;19.30;99.90
31309;DHT22;17936;52.446;10.840;2023-06-26T00:04:15;19.40;99.90
31309;DHT22;17936;52.446;10.840;2023-06-26T00:06:41;19.40;99.90
31309;DHT22;17936;52.446;10.840;2023-06-26T00:09:07;19.40;99.90
31309;DHT22;17936;52.446;10.840;2023-06-26T00:11:33;19.30;99.90
31309;DHT22;17936;52.446;10.840;2023-06-26T00:13:59;19.30;99.90
31309;DHT22;17936;52.446;10.840;2023-06-26T00:16:26;19.30;99.90
31309;DHT22;17936;52.446;10.840;2023-06-26T00:18:52;19.40;99.90
31309;DHT22;17936;52.446;10.840;2023-06-26T00:21:18;19.20;99.90
31309;DHT22;17936;52.446;10.840;2023-06-26T00:23:44;19.10;99.90
31309;DHT22;17936;52.446;10.840;2023-06-26T00:26:10;19.20;99.90
31309;DHT22;17936;52.446;10.840;2023-06-26T00:28:36;18.90;99.90
31309;DHT22;17936;52.446;10.840;2023-06-26T00:31:01;19.00;99.90
31309;DHT22;17936;52.446;10.840;2023-06-26T00:33:27;19.00;99.90
31309;DHT22;17936;52.446;10.840;2023-06-26T00:35:52;19.20;99.90
31309;DHT22;17936;52.446;10.840;2023-06-26T00:38:18;19.10;99.90
31309;DHT22;17936;52.446;10.840;2023-06-26T00:40:43;19.10;99.90
31309;DHT22;17936;52.446;10.840;2023-06-26T00:43:09;19.00;99.90
31309;DHT22;17936;52.446;10.840;2023-06-26T00:45:34;19.00;99.90
31309;DHT22;17936;52.446;10.840;2023-06-26T00:48:00;18.80;99.90
31309;DHT22;17936;52.446;10.840;2023-06-26T00:50:27;18.80;99.90
31309;DHT22;17936;52.446;10.840;2023-06-26T00:52:53;18.50;99.90
31309;DHT22;17936;52.446;10.840;2023-06-26T00:55:22;18.40;99.90
31309;DHT22;17936;52.446;10.840;2023-06-26T00:57:47;18.50;99.90
31309;DHT22;17936;52.446;10.840;2023-06-26T01:00:14;18.40;99.90
31309;DHT22;17936;52.446;10.840;2023-06-26T01:02:39;18.80;99.90
31309;DHT22;17936;52.446;10.840;2023-06-26T01:05:06;18.70;99.90
31309;DHT22;17936;52.446;10.840;2023-06-26T01:07:35;18.50;99.90
31309;DHT22;17936;52.446;10.840;2023-06-26T01:10:06;18.60;99.90
31309;DHT22;17936;52.446;10.840;2023-06-26T01:12:33;18.70;99.90
31309;DHT22;17936;52.446;10.840;2023-06-26T01:14:59;18.70;99.90
31309;DHT22;17936;52.446;10.840;2023-06-26T01:17:29;18.70;99.90
31309;DHT22;17936;52.446;10.840;2023-06-26T01:19:59;18.50;99.90
31309;DHT22;17936;52.446;10.840;2023-06-26T01:22:32;18.70;99.90
31309;DHT22;17936;52.446;10.840;2023-06-26T01:27:38;18.20;99.90
31309;DHT22;17936;52.446;10.840;2023-06-26T01:30:05;18.30;99.90
31309;DHT22;17936;52.446;10.840;2023-06-26T01:32:31;18.50;99.90
31309;DHT22;17936;52.446;10.840;2023-06-26T01:34:59;18.60;99.90
31309;DHT22;17936;52.446;10.840;2023-06-26T01:37:25;18.70;99.90
31309;DHT22;17936;52.446;10.840;2023-06-26T01:39:50;18.70;99.90
31309;DHT22;17936;52.446;10.840;2023-06-26T01:42:16;18.60;99.90
31309;DHT22;17936;52.446;10.840;2023-06-26T01:44:45;18.40;99.90
31309;DHT22;17936;52.446;10.840;2023-06-26T01:47:16;18.60;99.90
31309;DHT22;17936;52.446;10.840;2023-06-26T01:50:00;18.30;99.90
31309;DHT22;17936;52.446;10.840;2023-06-26T01:52:42;18.10;99.90
31309;DHT22;17936;52.446;10.840;2023-06-26T01:55:15;18.20;99.90
31309;DHT22;17936;52.446;10.840;2023-06-26T01:57:42;17.90;99.90
31309;DHT22;17936;52.446;10.840;2023-06-26T02:00:09;18.10;99.90
31309;DHT22;17936;52.446;10.840;2023-06-26T02:02:36;18.00;99.90
31309;DHT22;17936;52.446;10.840;2023-06-26T02:05:02;18.00;99.90
31309;DHT22;17936;52.446;10.840;2023-06-26T02:07:27;18.30;99.90
31309;DHT22;17936;52.446;10.840;2023-06-26T02:09:53;18.30;99.90
31309;DHT22;17936;52.446;10.840;2023-06-26T02:12:19;18.20;99.90
31309;DHT22;17936;52.446;10.840;2023-06-26T02:14:44;18.20;99.90
31309;DHT22;17936;52.446;10.840;2023-06-26T02:17:10;18.00;99.90
31309;DHT22;17936;52.446;10.840;2023-06-26T02:19:35;17.90;99.90
31309;DHT22;17936;52.446;10.840;2023-06-26T02:22:01;18.00;99.90
31309;DHT22;17936;52.446;10.840;2023-06-26T02:24:26;18.00;99.90
31309;DHT22;17936;52.446;10.840;2023-06-26T02:26:55;17.90;99.90
31309;DHT22;17936;52.446;10.840;2023-06-26T02:29:21;18.00;99.90
31309;DHT22;17936;52.446;10.840;2023-06-26T02:31:47;18.10;99.90
31309;DHT22;17936;52.446;10.840;2023-06-26T02:34:12;18.00;99.90
31309;DHT22;17936;52.446;10.840;2023-06-26T02:36:38;18.10;99.90
31309;DHT22;17936;52.446;10.840;2023-06-26T02:39:04;18.20;99.90
31309;DHT22;17936;52.446;10.840;2023-06-26T02:41:30;18.00;99.90
31309;DHT22;17936;52.446;10.840;2023-06-26T02:43:55;17.80;99.90
31309;DHT22;17936;52.446;10.840;2023-06-26T02:46:21;17.80;99.90
31309;DHT22;17936;52.446;10.840;2023-06-26T02:48:46;17.50;99.90
31309;DHT22;17936;52.446;10.840;2023-06-26T02:51:12;17.40;99.90
31309;DHT22;17936;52.446;10.840;2023-06-26T02:53:37;17.50;99.90
31309;DHT22;17936;52.446;10.840;2023-06-26T02:56:03;17.50;99.90
31309;DHT22;17936;52.446;10.840;2023-06-26T02:58:28;17.60;99.90
31309;DHT22;17936;52.446;10.840;2023-06-26T03:00:54;17.60;99.90
31309;DHT22;17936;52.446;10.840;2023-06-26T03:03:21;17.60;99.90
31309;DHT22;17936;52.446;10.840;2023-06-26T03:05:47;17.80;99.90
31309;DHT22;17936;52.446;10.840;2023-06-26T03:08:12;17.90;99.90
31309;DHT22;17936;52.446;10.840;2023-06-26T03:10:38;17.70;99.90
31309;DHT22;17936;52.446;10.840;2023-06-26T03:13:03;17.80;99.90
31309;DHT22;17936;52.446;10.840;2023-06-26T03:15:29;17.70;99.90
31309;DHT22;17936;52.446;10.840;2023-06-26T03:17:54;17.50;99.90
31309;DHT22;17936;52.446;10.840;2023-06-26T03:20:20;17.60;99.90
31309;DHT22;17936;52.446;10.840;2023-06-26T03:22:45;17.60;99.90
31309;DHT22;17936;52.446;10.840;2023-06-26T03:25:11;17.70;99.90
31309;DHT22;17936;52.446;10.840;2023-06-26T03:27:36;17.80;99.90
31309;DHT22;17936;52.446;10.840;2023-06-26T03:30:02;17.80;99.90
31309;DHT22;17936;52.446;10.840;2023-06-26T03:32:27;17.90;99.90
31309;DHT22;17936;52.446;10.840;2023-06-26T03:34:53;18.00;99.90
31309;DHT22;17936;52.446;10.840;2023-06-26T03:37:18;17.80;99.90
31309;DHT22;17936;52.446;10.840;2023-06-26T03:39:44;17.80;99.90
31309;DHT22;17936;52.446;10.840;2023-06-26T03:42:09;17.90;99.90
31309;DHT22;17936;52.446;10.840;2023-06-26T03:44:35;17.90;99.90
31309;DHT22;17936;52.446;10.840;2023-06-26T03:47:00;17.80;99.90
31309;DHT22;17936;52.446;10.840;2023-06-26T03:49:26;17.90;99.90
31309;DHT22;17936;52.446;10.840;2023-06-26T03:51:51;17.90;99.90
31309;DHT22;17936;52.446;10.840;2023-06-26T03:54:17;17.80;99.90
31309;DHT22;17936;52.446;10.840;2023-06-26T03:56:42;17.80;99.90
31309;DHT22;17936;52.446;10.840;2023-06-26T03:59:09;17.80;99.90
31309;DHT22;17936;52.446;10.840;2023-06-26T04:01:36;17.90;99.90
31309;DHT22;17936;52.446;10.840;2023-06-26T04:04:02;18.00;99.90
31309;DHT22;17936;52.446;10.840;2023-06-26T04:06:28;18.00;99.90
31309;DHT22;17936;52.446;10.840;2023-06-26T04:08:53;18.10;99.90
31309;DHT22;17936;52.446;10.840;2023-06-26T04:11:19;18.20;99.90
31309;DHT22;17936;52.446;10.840;2023-06-26T04:13:44;18.30;99.90
31309;DHT22;17936;52.446;10.840;2023-06-26T04:16:10;18.30;99.90
31309;DHT22;17936;52.446;10.840;2023-06-26T04:18:37;18.20;99.90
31309;DHT22;17936;52.446;10.840;2023-06-26T04:21:10;18.20;99.90
31309;DHT22;17936;52.446;10.840;2023-06-26T04:23:37;18.20;99.90
31309;DHT22;17936;52.446;10.840;2023-06-26T04:26:04;18.20;99.90
31309;DHT22;17936;52.446;10.840;2023-06-26T04:28:31;18.20;99.90
31309;DHT22;17936;52.446;10.840;2023-06-26T04:30:57;18.30;99.90
31309;DHT22;17936;52.446;10.840;2023-06-26T04:33:22;18.30;99.90
31309;DHT22;17936;52.446;10.840;2023-06-26T04:35:48;18.20;99.90
31309;DHT22;17936;52.446;10.840;2023-06-26T04:38:18;18.20;99.90
31309;DHT22;17936;52.446;10.840;2023-06-26T04:40:43;18.40;99.90
31309;DHT22;17936;52.446;10.840;2023-06-26T04:43:09;18.60;99.90
31309;DHT22;17936;52.446;10.840;2023-06-26T04:45:34;18.70;99.90
31309;DHT22;17936;52.446;10.840;2023-06-26T04:48:00;19.00;99.90
31309;DHT22;17936;52.446;10.840;2023-06-26T04:50:26;19.30;99.90
31309;DHT22;17936;52.446;10.840;2023-06-26T04:52:53;19.50;99.90
31309;DHT22;17936;52.446;10.840;2023-06-26T04:55:18;19.80;99.90
31309;DHT22;17936;52.446;10.840;2023-06-26T04:57:44;20.10;99.90
31309;DHT22;17936;52.446;10.840;2023-06-26T05:00:10;20.20;99.90
31309;DHT22;17936;52.446;10.840;2023-06-26T05:02:36;20.30;99.90
31309;DHT22;17936;52.446;10.840;2023-06-26T05:05:02;20.30;99.90
31309;DHT22;17936;52.446;10.840;2023-06-26T05:07:27;20.70;99.90
31309;DHT22;17936;52.446;10.840;2023-06-26T05:09:53;20.90;99.90
31309;DHT22;17936;52.446;10.840;2023-06-26T05:12:18;21.30;99.90
31309;DHT22;17936;52.446;10.840;2023-06-26T05:14:44;21.60;99.90
31309;DHT22;17936;52.446;10.840;2023-06-26T05:17:10;21.50;99.90
31309;DHT22;17936;52.446;10.840;2023-06-26T05:19:36;21.90;99.90
31309;DHT22;17936;52.446;10.840;2023-06-26T05:22:02;21.90;99.90
31309;DHT22;17936;52.446;10.840;2023-06-26T05:24:36;22.00;99.90
31309;DHT22;17936;52.446;10.840;2023-06-26T05:27:02;22.10;99.90
31309;DHT22;17936;52.446;10.840;2023-06-26T05:29:30;22.40;99.90
31309;DHT22;17936;52.446;10.840;2023-06-26T05:31:56;22.60;99.90
31309;DHT22;17936;52.446;10.840;2023-06-26T05:34:25;22.60;99.90
31309;DHT22;17936;52.446;10.840;2023-06-26T05:36:57;22.80;99.90
31309;DHT22;17936;52.446;10.840;2023-06-26T05:39:23;22.70;99.90
31309;DHT22;17936;52.446;10.840;2023-06-26T05:41:49;23.00;99.90
31309;DHT22;17936;52.446;10.840;2023-06-26T05:44:14;23.30;99.90
31309;DHT22;17936;52.446;10.840;2023-06-26T05:46:40;23.50;99.90
31309;DHT22;17936;52.446;10.840;2023-06-26T05:49:05;23.80;99.90
31309;DHT22;17936;52.446;10.840;2023-06-26T05:51:31;23.90;99.90
31309;DHT22;17936;52.446;10.840;2023-06-26T05:53:57;24.50;99.90
31309;DHT22;17936;52.446;10.840;2023-06-26T05:56:22;24.10;99.90
31309;DHT22;17936;52.446;10.840;2023-06-26T05:58:48;24.40;99.90
31309;DHT22;17936;52.446;10.840;2023-06-26T06:01:15;24.40;99.90
31309;DHT22;17936;52.446;10.840;2023-06-26T06:03:40;24.10;99.90
31309;DHT22;17936;52.446;10.840;2023-06-26T06:06:06;23.70;99.90
31309;DHT22;17936;52.446;10.840;2023-06-26T06:08:31;23.90;99.90
31309;DHT22;17936;52.446;10.840;2023-06-26T06:10:57;24.50;99.90
31309;DHT22;17936;52.446;10.840;2023-06-26T06:13:23;24.80;99.90
31309;DHT22;17936;52.446;10.840;2023-06-26T06:15:49;24.70;99.90
31309;DHT22;17936;52.446;10.840;2023-06-26T06:18:14;25.00;99.90
31309;DHT22;17936;52.446;10.840;2023-06-26T06:20:40;25.00;99.90
31309;DHT22;17936;52.446;10.840;2023-06-26T06:23:05;25.20;99.90
31309;DHT22;17936;52.446;10.840;2023-06-26T06:25:31;25.80;99.90
31309;DHT22;17936;52.446;10.840;2023-06-26T06:27:57;25.80;99.90
31309;DHT22;17936;52.446;10.840;2023-06-26T06:30:22;26.00;99.90
31309;DHT22;17936;52.446;10.840;2023-06-26T06:32:48;25.90;99.90
31309;DHT22;17936;52.446;10.840;2023-06-26T06:35:19;25.70;99.90
31309;DHT22;17936;52.446;10.840;2023-06-26T06:37:45;25.60;99.90
31309;DHT22;17936;52.446;10.840;2023-06-26T06:40:11;25.90;99.90
31309;DHT22;17936;52.446;10.840;2023-06-26T06:42:37;26.10;99.90
31309;DHT22;17936;52.446;10.840;2023-06-26T06:45:03;26.40;99.90
31309;DHT22;17936;52.446;10.840;2023-06-26T06:47:29;26.50;99.90
31309;DHT22;17936;52.446;10.840;2023-06-26T06:49:54;26.80;99.90
31309;DHT22;17936;52.446;10.840;2023-06-26T06:52:20;27.10;99.90
31309;DHT22;17936;52.446;10.840;2023-06-26T06:54:55;27.20;99.90
31309;DHT22;17936;52.446;10.840;2023-06-26T06:57:21;27.40;99.90
31309;DHT22;17936;52.446;10.840;2023-06-26T06:59:47;27.60;99.90
31309;DHT22;17936;52.446;10.840;2023-06-26T07:02:14;28.00;99.90
31309;DHT22;17936;52.446;10.840;2023-06-26T07:04:40;27.90;99.90
31309;DHT22;17936;52.446;10.840;2023-06-26T07:07:06;27.70;99.90
31309;DHT22;17936;52.446;10.840;2023-06-26T07:09:31;28.30;99.90
31309;DHT22;17936;52.446;10.840;2023-06-26T07:11:57;28.10;99.90
31309;DHT22;17936;52.446;10.840;2023-06-26T07:14:23;28.60;99.90
31309;DHT22;17936;52.446;10.840;2023-06-26T07:16:48;29.20;99.90
31309;DHT22;17936;52.446;10.840;2023-06-26T07:19:14;29.00;99.90
31309;DHT22;17936;52.446;10.840;2023-06-26T07:21:39;28.80;99.90
31309;DHT22;17936;52.446;10.840;2023-06-26T07:24:06;28.90;99.90
31309;DHT22;17936;52.446;10.840;2023-06-26T07:26:32;29.20;99.90
31309;DHT22;17936;52.446;10.840;2023-06-26T07:28:58;28.10;99.90
31309;DHT22;17936;52.446;10.840;2023-06-26T07:31:23;28.70;99.90
31309;DHT22;17936;52.446;10.840;2023-06-26T07:33:49;29.50;99.90
31309;DHT22;17936;52.446;10.840;2023-06-26T07:36:14;29.50;99.90
31309;DHT22;17936;52.446;10.840;2023-06-26T07:38:40;29.30;99.90
31309;DHT22;17936;52.446;10.840;2023-06-26T07:41:06;29.80;99.90
31309;DHT22;17936;52.446;10.840;2023-06-26T07:43:31;29.70;99.40
31309;DHT22;17936;52.446;10.840;2023-06-26T07:45:57;29.70;97.20
31309;DHT22;17936;52.446;10.840;2023-06-26T07:48:25;29.30;97.70
31309;DHT22;17936;52.446;10.840;2023-06-26T07:50:51;28.90;99.90
31309;DHT22;17936;52.446;10.840;2023-06-26T07:53:16;28.60;99.70
31309;DHT22;17936;52.446;10.840;2023-06-26T07:55:43;28.40;99.20
31309;DHT22;17936;52.446;10.840;2023-06-26T07:58:08;28.20;99.90
31309;DHT22;17936;52.446;10.840;2023-06-26T08:00:34;28.80;99.90
31309;DHT22;17936;52.446;10.840;2023-06-26T08:03:00;28.10;99.90
31309;DHT22;17936;52.446;10.840;2023-06-26T08:05:26;29.00;99.80
31309;DHT22;17936;52.446;10.840;2023-06-26T08:07:51;29.30;99.60
31309;DHT22;17936;52.446;10.840;2023-06-26T08:10:17;29.60;99.10
31309;DHT22;17936;52.446;10.840;2023-06-26T08:12:42;29.60;97.70
31309;DHT22;17936;52.446;10.840;2023-06-26T08:15:11;29.90;98.40
31309;DHT22;17936;52.446;10.840;2023-06-26T08:17:37;29.40;96.30
31309;DHT22;17936;52.446;10.840;2023-06-26T08:20:03;29.40;95.60
31309;DHT22;17936;52.446;10.840;2023-06-26T08:22:29;29.10;97.20
31309;DHT22;17936;52.446;10.840;2023-06-26T08:24:54;29.10;96.60
31309;DHT22;17936;52.446;10.840;2023-06-26T08:27:20;28.50;97.00
31309;DHT22;17936;52.446;10.840;2023-06-26T08:29:45;28.40;98.30
31309;DHT22;17936;52.446;10.840;2023-06-26T08:32:11;28.60;98.30
31309;DHT22;17936;52.446;10.840;2023-06-26T08:34:36;29.30;96.40
31309;DHT22;17936;52.446;10.840;2023-06-26T08:37:02;29.50;98.00
31309;DHT22;17936;52.446;10.840;2023-06-26T08:39:27;29.70;97.50
31309;DHT22;17936;52.446;10.840;2023-06-26T08:41:53;29.70;97.00
31309;DHT22;17936;52.446;10.840;2023-06-26T08:44:19;29.40;96.10
31309;DHT22;17936;52.446;10.840;2023-06-26T08:46:49;29.30;96.30
31309;DHT22;17936;52.446;10.840;2023-06-26T08:49:18;29.60;96.60
31309;DHT22;17936;52.446;10.840;2023-06-26T08:51:50;30.20;97.00
31309;DHT22;17936;52.446;10.840;2023-06-26T08:54:17;30.30;95.90
31309;DHT22;17936;52.446;10.840;2023-06-26T08:56:48;30.30;94.50
31309;DHT22;17936;52.446;10.840;2023-06-26T08:59:15;29.90;96.30
31309;DHT22;17936;52.446;10.840;2023-06-26T09:01:41;30.40;94.90
31309;DHT22;17936;52.446;10.840;2023-06-26T09:04:07;30.50;94.10
31309;DHT22;17936;52.446;10.840;2023-06-26T09:06:33;30.30;95.10
31309;DHT22;17936;52.446;10.840;2023-06-26T09:08:59;30.60;93.70
31309;DHT22;17936;52.446;10.840;2023-06-26T09:11:24;30.10;92.80
31309;DHT22;17936;52.446;10.840;2023-06-26T09:13:50;30.10;91.70
31309;DHT22;17936;52.446;10.840;2023-06-26T09:16:16;29.90;90.90
31309;DHT22;17936;52.446;10.840;2023-06-26T09:18:42;29.90;91.40
31309;DHT22;17936;52.446;10.840;2023-06-26T09:21:12;30.20;91.00
31309;DHT22;17936;52.446;10.840;2023-06-26T09:23:40;30.40;92.00
31309;DHT22;17936;52.446;10.840;2023-06-26T09:26:06;31.10;92.00
31309;DHT22;17936;52.446;10.840;2023-06-26T09:28:32;31.10;90.60
31309;DHT22;17936;52.446;10.840;2023-06-26T09:31:02;30.70;90.40
31309;DHT22;17936;52.446;10.840;2023-06-26T09:33:33;30.70;89.60
31309;DHT22;17936;52.446;10.840;2023-06-26T09:36:00;31.10;90.20
31309;DHT22;17936;52.446;10.840;2023-06-26T09:38:25;30.70;89.90
31309;DHT22;17936;52.446;10.840;2023-06-26T09:40:52;30.20;91.00
31309;DHT22;17936;52.446;10.840;2023-06-26T09:43:18;30.20;89.50
31309;DHT22;17936;52.446;10.840;2023-06-26T09:45:44;30.40;90.30
31309;DHT22;17936;52.446;10.840;2023-06-26T09:48:10;30.80;90.20
31309;DHT22;17936;52.446;10.840;2023-06-26T09:50:37;30.90;91.50
31309;DHT22;17936;52.446;10.840;2023-06-26T09:53:10;30.80;90.60
31309;DHT22;17936;52.446;10.840;2023-06-26T09:55:37;30.90;90.70
31309;DHT22;17936;52.446;10.840;2023-06-26T09:58:03;31.10;90.60
31309;DHT22;17936;52.446;10.840;2023-06-26T10:00:32;31.70;91.40
31309;DHT22;17936;52.446;10.840;2023-06-26T10:03:02;31.20;88.20
31309;DHT22;17936;52.446;10.840;2023-06-26T10:05:28;31.60;89.70
31309;DHT22;17936;52.446;10.840;2023-06-26T10:07:57;30.80;91.10
31309;DHT22;17936;52.446;10.840;2023-06-26T10:10:24;30.10;91.90
31309;DHT22;17936;52.446;10.840;2023-06-26T10:12:54;30.20;91.70
31309;DHT22;17936;52.446;10.840;2023-06-26T10:15:22;29.60;93.60
31309;DHT22;17936;52.446;10.840;2023-06-26T10:17:49;29.60;93.20
31309;DHT22;17936;52.446;10.840;2023-06-26T10:20:15;29.60;94.80
31309;DHT22;17936;52.446;10.840;2023-06-26T10:22:45;29.60;93.30
31309;DHT22;17936;52.446;10.840;2023-06-26T10:25:13;30.10;93.40
31309;DHT22;17936;52.446;10.840;2023-06-26T10:27:45;29.60;92.90
31309;DHT22;17936;52.446;10.840;2023-06-26T10:30:14;30.10;93.70
31309;DHT22;17936;52.446;10.840;2023-06-26T10:32:41;30.10;94.20
31309;DHT22;17936;52.446;10.840;2023-06-26T10:35:07;29.80;94.60
31309;DHT22;17936;52.446;10.840;2023-06-26T10:37:49;30.10;95.80
31309;DHT22;17936;52.446;10.840;2023-06-26T10:40:27;30.00;96.40
31309;DHT22;17936;52.446;10.840;2023-06-26T10:43:06;30.40;96.30
31309;DHT22;17936;52.446;10.840;2023-06-26T10:45:34;30.10;96.40
31309;DHT22;17936;52.446;10.840;2023-06-26T10:48:00;30.30;95.60
31309;DHT22;17936;52.446;10.840;2023-06-26T10:50:28;29.30;95.70
31309;DHT22;17936;52.446;10.840;2023-06-26T10:56:04;30.30;95.30
31309;DHT22;17936;52.446;10.840;2023-06-26T10:58:32;29.60;95.60
31309;DHT22;17936;52.446;10.840;2023-06-26T11:01:22;29.60;97.10
31309;DHT22;17936;52.446;10.840;2023-06-26T11:04:10;30.10;96.00
31309;DHT22;17936;52.446;10.840;2023-06-26T11:06:37;29.90;96.50
31309;DHT22;17936;52.446;10.840;2023-06-26T11:09:10;29.40;98.20
31309;DHT22;17936;52.446;10.840;2023-06-26T11:14:21;29.10;99.50
31309;DHT22;17936;52.446;10.840;2023-06-26T11:16:47;28.30;99.90
31309;DHT22;17936;52.446;10.840;2023-06-26T11:19:16;28.10;99.90
31309;DHT22;17936;52.446;10.840;2023-06-26T11:21:41;28.00;99.90
31309;DHT22;17936;52.446;10.840;2023-06-26T11:24:08;28.20;99.90
31309;DHT22;17936;52.446;10.840;2023-06-26T11:26:44;28.90;99.90
31309;DHT22;17936;52.446;10.840;2023-06-26T11:29:10;29.30;99.90
31309;DHT22;17936;52.446;10.840;2023-06-26T11:31:38;28.90;99.90
31309;DHT22;17936;52.446;10.840;2023-06-26T11:34:12;28.30;99.90
31309;DHT22;17936;52.446;10.840;2023-06-26T11:36:39;27.90;99.90
31309;DHT22;17936;52.446;10.840;2023-06-26T11:39:06;27.60;99.90
31309;DHT22;17936;52.446;10.840;2023-06-26T11:41:33;27.40;99.90
31309;DHT22;17936;52.446;10.840;2023-06-26T11:44:03;27.20;99.90
31309;DHT22;17936;52.446;10.840;2023-06-26T11:46:30;27.20;99.90
31309;DHT22;17936;52.446;10.840;2023-06-26T11:48:56;27.40;99.90
31309;DHT22;17936;52.446;10.840;2023-06-26T11:51:21;27.00;99.90
31309;DHT22;17936;52.446;10.840;2023-06-26T11:53:47;27.10;99.90
31309;DHT22;17936;52.446;10.840;2023-06-26T11:56:14;27.20;99.90
31309;DHT22;17936;52.446;10.840;2023-06-26T12:01:39;27.40;99.90
31309;DHT22;17936;52.446;10.840;2023-06-26T12:04:07;26.30;99.90
31309;DHT22;17936;52.446;10.840;2023-06-26T12:06:41;25.50;99.90
31309;DHT22;17936;52.446;10.840;2023-06-26T12:09:10;25.10;99.90
31309;DHT22;17936;52.446;10.840;2023-06-26T12:11:43;24.80;99.90
31309;DHT22;17936;52.446;10.840;2023-06-26T12:14:11;25.00;99.90
31309;DHT22;17936;52.446;10.840;2023-06-26T12:16:37;24.40;99.90
31309;DHT22;17936;52.446;10.840;2023-06-26T12:19:06;24.80;99.90
31309;DHT22;17936;52.446;10.840;2023-06-26T12:21:45;25.30;99.90
31309;DHT22;17936;52.446;10.840;2023-06-26T12:24:21;24.70;99.90
31309;DHT22;17936;52.446;10.840;2023-06-26T12:26:51;24.70;99.90
31309;DHT22;17936;52.446;10.840;2023-06-26T12:29:20;24.20;99.90
31309;DHT22;17936;52.446;10.840;2023-06-26T12:31:50;23.90;99.90
31309;DHT22;17936;52.446;10.840;2023-06-26T12:34:19;24.00;99.90
31309;DHT22;17936;52.446;10.840;2023-06-26T12:36:48;24.10;99.90
31309;DHT22;17936;52.446;10.840;2023-06-26T12:39:18;23.60;99.90
31309;DHT22;17936;52.446;10.840;2023-06-26T12:41:48;23.50;99.90
31309;DHT22;17936;52.446;10.840;2023-06-26T12:44:27;23.10;99.90
31309;DHT22;17936;52.446;10.840;2023-06-26T12:46:59;23.20;99.90
31309;DHT22;17936;52.446;10.840;2023-06-26T12:49:37;22.90;99.90
31309;DHT22;17936;52.446;10.840;2023-06-26T12:52:16;22.60;99.90
31309;DHT22;17936;52.446;10.840;2023-06-26T12:54:43;22.60;99.90
31309;DHT22;17936;52.446;10.840;2023-06-26T12:57:09;22.50;99.90
31309;DHT22;17936;52.446;10.840;2023-06-26T12:59:36;22.70;99.90
31309;DHT22;17936;52.446;10.840;2023-06-26T13:02:02;22.90;99.90
31309;DHT22;17936;52.446;10.840;2023-06-26T13:04:28;23.10;99.90
31309;DHT22;17936;52.446;10.840;2023-06-26T13:06:54;23.00;99.90
31309;DHT22;17936;52.446;10.840;2023-06-26T13:09:21;23.30;99.90
31309;DHT22;17936;52.446;10.840;2023-06-26T13:11:47;23.60;99.90
31309;DHT22;17936;52.446;10.840;2023-06-26T13:14:12;23.60;99.90
31309;DHT22;17936;52.446;10.840;2023-06-26T13:16:38;23.80;99.90
31309;DHT22;17936;52.446;10.840;2023-06-26T13:19:04;24.40;99.90
31309;DHT22;17936;52.446;10.840;2023-06-26T13:21:29;24.50;99.90
31309;DHT22;17936;52.446;10.840;2023-06-26T13:23:56;24.50;99.90
31309;DHT22;17936;52.446;10.840;2023-06-26T13:26:22;23.90;99.90
31309;DHT22;17936;52.446;10.840;2023-06-26T13:28:48;23.70;99.90
31309;DHT22;17936;52.446;10.840;2023-06-26T13:31:14;24.20;99.90
31309;DHT22;17936;52.446;10.840;2023-06-26T13:33:40;25.10;99.90
31309;DHT22;17936;52.446;10.840;2023-06-26T13:36:06;25.20;99.90
31309;DHT22;17936;52.446;10.840;2023-06-26T13:38:33;24.90;99.90
31309;DHT22;17936;52.446;10.840;2023-06-26T13:41:00;25.00;99.90
31309;DHT22;17936;52.446;10.840;2023-06-26T13:43:29;24.80;99.90
31309;DHT22;17936;52.446;10.840;2023-06-26T13:45:55;24.80;99.90
31309;DHT22;17936;52.446;10.840;2023-06-26T13:48:20;24.60;99.90
31309;DHT22;17936;52.446;10.840;2023-06-26T13:50:47;24.70;99.90
31309;DHT22;17936;52.446;10.840;2023-06-26T13:53:13;24.60;99.90
31309;DHT22;17936;52.446;10.840;2023-06-26T13:55:40;25.30;99.90
31309;DHT22;17936;52.446;10.840;2023-06-26T13:58:06;25.20;99.90
31309;DHT22;17936;52.446;10.840;2023-06-26T14:00:33;25.40;99.90
31309;DHT22;17936;52.446;10.840;2023-06-26T14:03:05;25.90;99.90
31309;DHT22;17936;52.446;10.840;2023-06-26T14:05:35;25.20;99.90
31309;DHT22;17936;52.446;10.840;2023-06-26T14:08:06;25.20;99.90
31309;DHT22;17936;52.446;10.840;2023-06-26T14:10:32;25.50;99.90
31309;DHT22;17936;52.446;10.840;2023-06-26T14:13:01;25.50;99.90
31309;DHT22;17936;52.446;10.840;2023-06-26T14:15:28;25.70;99.90
31309;DHT22;17936;52.446;10.840;2023-06-26T14:17:54;25.90;99.90
31309;DHT22;17936;52.446;10.840;2023-06-26T14:20:21;25.30;99.90
31309;DHT22;17936;52.446;10.840;2023-06-26T14:22:48;25.00;99.90
31309;DHT22;17936;52.446;10.840;2023-06-26T14:25:14;24.90;99.90
31309;DHT22;17936;52.446;10.840;2023-06-26T14:27:40;24.60;99.90
31309;DHT22;17936;52.446;10.840;2023-06-26T14:30:06;24.60;99.90
31309;DHT22;17936;52.446;10.840;2023-06-26T14:32:35;24.60;99.90
31309;DHT22;17936;52.446;10.840;2023-06-26T14:35:03;24.40;99.90
31309;DHT22;17936;52.446;10.840;2023-06-26T14:37:29;24.30;99.90
31309;DHT22;17936;52.446;10.840;2023-06-26T14:39:55;24.60;99.90
31309;DHT22;17936;52.446;10.840;2023-06-26T14:42:21;24.70;99.90
31309;DHT22;17936;52.446;10.840;2023-06-26T14:44:46;24.60;99.90
31309;DHT22;17936;52.446;10.840;2023-06-26T14:47:13;24.80;99.90
31309;DHT22;17936;52.446;10.840;2023-06-26T14:49:40;24.80;99.90
31309;DHT22;17936;52.446;10.840;2023-06-26T14:52:05;25.00;99.90
31309;DHT22;17936;52.446;10.840;2023-06-26T14:54:31;25.10;99.90
31309;DHT22;17936;52.446;10.840;2023-06-26T14:56:58;24.80;99.90
31309;DHT22;17936;52.446;10.840;2023-06-26T14:59:23;24.50;99.90
31309;DHT22;17936;52.446;10.840;2023-06-26T15:01:49;24.30;99.90
31309;DHT22;17936;52.446;10.840;2023-06-26T15:04:15;24.40;99.90
31309;DHT22;17936;52.446;10.840;2023-06-26T15:06:40;24.60;99.90
31309;DHT22;17936;52.446;10.840;2023-06-26T15:09:06;24.70;99.90
31309;DHT22;17936;52.446;10.840;2023-06-26T15:11:31;24.40;99.90
31309;DHT22;17936;52.446;10.840;2023-06-26T15:13:57;25.00;99.90
31309;DHT22;17936;52.446;10.840;2023-06-26T15:16:23;25.10;99.90
31309;DHT22;17936;52.446;10.840;2023-06-26T15:18:48;25.30;99.90
31309;DHT22;17936;52.446;10.840;2023-06-26T15:21:14;25.20;99.90
31309;DHT22;17936;52.446;10.840;2023-06-26T15:23:39;24.80;99.90
31309;DHT22;17936;52.446;10.840;2023-06-26T15:26:05;24.70;99.90